Time;durP1;ratioP1;P1;durP2;ratioP2;P2;SDS_P1;SDS_P2;PMS_P1;PMS_P2;Temp;Humidity;BMP_temperature;BMP_pressure;BME280_temperature;BME280_humidity;BME280_pressure;Samples;Min_cycle;Max_cycle;Signal;HPM_P1;HPM_P2
2021/08/10 00:00:48;;;;;;;6.60;4.55;;;19.10;75.20;;;;;;5056511;28;20242;-90
2021/08/10 00:03:14;;;;;;;15.53;4.33;;;19.00;74.80;;;;;;5055817;28;20197;-90
2021/08/10 00:05:40;;;;;;;6.40;4.20;;;19.00;74.80;;;;;;5057381;28;20420;-90
2021/08/10 00:08:06;;;;;;;16.47;4.93;;;19.00;74.90;;;;;;5057117;28;20628;-90
2021/08/10 00:10:31;;;;;;;6.27;4.40;;;19.00;75.10;;;;;;5056796;28;20191;-90
2021/08/10 00:12:57;;;;;;;9.40;4.10;;;18.90;75.20;;;;;;5056626;28;20958;-90
2021/08/10 00:15:23;;;;;;;7.33;3.83;;;19.00;75.40;;;;;;5055859;28;20173;-90
2021/08/10 00:17:49;;;;;;;7.37;4.10;;;19.00;75.20;;;;;;5056121;28;20254;-90
2021/08/10 00:20:15;;;;;;;4.40;4.00;;;18.90;75.10;;;;;;5056402;28;20201;-90
2021/08/10 00:22:41;;;;;;;5.82;3.67;;;18.90;75.30;;;;;;5055837;28;20431;-90
2021/08/10 00:25:07;;;;;;;5.30;3.57;;;18.90;75.30;;;;;;5057684;28;20185;-90
2021/08/10 00:27:33;;;;;;;8.38;3.80;;;19.20;74.70;;;;;;5057455;28;20902;-90
2021/08/10 00:29:59;;;;;;;7.27;3.97;;;19.20;73.90;;;;;;5056398;28;20177;-90
2021/08/10 00:32:25;;;;;;;6.83;3.90;;;19.20;73.60;;;;;;5055696;28;20201;-90
2021/08/10 00:34:53;;;;;;;5.78;3.20;;;19.20;73.60;;;;;;5058104;28;20208;-90
2021/08/10 00:37:19;;;;;;;3.47;3.15;;;19.20;73.70;;;;;;5056274;28;20192;-90
2021/08/10 00:39:45;;;;;;;6.43;4.00;;;19.20;73.80;;;;;;5057816;28;20220;-90
2021/08/10 00:42:11;;;;;;;4.97;3.23;;;19.20;73.90;;;;;;5055735;28;20208;-90
2021/08/10 00:44:37;;;;;;;8.33;3.40;;;19.00;74.20;;;;;;5055761;28;20173;-90
2021/08/10 00:47:04;;;;;;;6.37;3.80;;;19.00;74.50;;;;;;5058510;28;20422;-90
2021/08/10 00:49:30;;;;;;;6.65;3.10;;;19.00;74.40;;;;;;5073078;28;20297;-90
2021/08/10 00:51:56;;;;;;;4.80;3.43;;;19.00;74.30;;;;;;5055899;28;20304;-90
2021/08/10 00:54:24;;;;;;;6.15;3.75;;;19.00;74.40;;;;;;5056695;28;20235;-90
2021/08/10 00:56:53;;;;;;;4.72;3.65;;;19.10;74.40;;;;;;5055196;28;20173;-90
2021/08/10 00:59:19;;;;;;;7.05;3.70;;;19.00;74.10;;;;;;5039161;28;20216;-90
2021/08/10 01:01:45;;;;;;;6.25;3.63;;;19.00;74.20;;;;;;5055952;28;20180;-90
2021/08/10 01:04:11;;;;;;;6.88;3.40;;;19.00;74.30;;;;;;5055728;28;20539;-90
2021/08/10 01:07:04;;;;;;;5.10;3.93;;;19.00;74.20;;;;;;5055275;28;20203;-90
2021/08/10 01:09:50;;;;;;;10.93;3.60;;;18.90;74.30;;;;;;5056729;28;20596;-90
2021/08/10 01:12:20;;;;;;;6.13;3.65;;;18.80;74.50;;;;;;5054868;28;20254;-90
2021/08/10 01:15:09;;;;;;;3.67;3.20;;;18.80;74.90;;;;;;5055858;28;20219;-90
2021/08/10 01:17:35;;;;;;;5.28;3.58;;;18.90;75.00;;;;;;5055410;28;20200;-90
2021/08/10 01:20:25;;;;;;;5.20;3.33;;;19.00;74.30;;;;;;5056032;28;20201;-90
2021/08/10 01:22:53;;;;;;;5.28;3.40;;;19.00;74.20;;;;;;5054605;28;20224;-90
2021/08/10 01:25:37;;;;;;;12.27;3.80;;;19.00;74.30;;;;;;5055404;28;20182;-90
2021/08/10 01:28:20;;;;;;;5.90;3.00;;;19.00;74.10;;;;;;5056693;28;20164;-90
2021/08/10 01:31:07;;;;;;;4.05;3.45;;;18.90;74.30;;;;;;5056130;28;20211;-90
2021/08/10 01:33:45;;;;;;;10.15;3.35;;;18.90;74.50;;;;;;5038568;28;20209;-90
2021/08/10 01:36:15;;;;;;;6.47;3.40;;;19.00;74.20;;;;;;5056532;28;20552;-90
2021/08/10 01:38:44;;;;;;;3.58;2.70;;;19.00;74.00;;;;;;5055111;28;20617;-90
2021/08/10 01:41:12;;;;;;;6.95;4.13;;;19.00;74.00;;;;;;5055479;28;20272;-90
2021/08/10 01:43:41;;;;;;;8.05;2.67;;;19.00;74.20;;;;;;5069251;28;20216;-90
2021/08/10 01:46:07;;;;;;;5.40;3.38;;;18.90;74.30;;;;;;5074019;28;20574;-90
2021/08/10 01:48:35;;;;;;;6.33;3.90;;;18.80;74.50;;;;;;5057450;28;20241;-90
2021/08/10 01:51:02;;;;;;;5.78;4.13;;;18.70;74.70;;;;;;5055418;28;20604;-90
2021/08/10 01:53:29;;;;;;;8.45;4.03;;;18.70;75.00;;;;;;5054398;28;20273;-90
2021/08/10 01:55:58;;;;;;;7.30;3.50;;;18.60;74.90;;;;;;5055328;28;20320;-90
2021/08/10 01:58:26;;;;;;;10.27;3.67;;;18.70;75.30;;;;;;5055276;28;20501;-90
2021/08/10 02:00:53;;;;;;;4.32;3.03;;;18.70;75.20;;;;;;5054973;28;20213;-90
2021/08/10 02:03:20;;;;;;;9.13;3.20;;;18.60;75.20;;;;;;5054534;28;20201;-90
2021/08/10 02:05:46;;;;;;;6.10;3.47;;;18.70;75.30;;;;;;5056594;28;20242;-90
2021/08/10 02:08:14;;;;;;;4.25;2.83;;;18.60;74.90;;;;;;5056248;28;20535;-90
2021/08/10 02:10:41;;;;;;;3.95;1.90;;;18.70;75.00;;;;;;5055430;28;20593;-90
2021/08/10 02:13:09;;;;;;;2.90;2.40;;;18.60;74.90;;;;;;5054946;28;20346;-90
2021/08/10 02:15:39;;;;;;;2.75;2.47;;;18.60;75.00;;;;;;5055367;28;20177;-90
2021/08/10 02:18:04;;;;;;;4.22;2.30;;;18.50;75.10;;;;;;5063971;28;20177;-90
2021/08/10 02:20:31;;;;;;;3.27;2.27;;;18.40;75.40;;;;;;5077008;28;20273;-89
2021/08/10 02:22:58;;;;;;;4.15;2.13;;;18.40;75.40;;;;;;5076245;28;20205;-90
2021/08/10 02:25:27;;;;;;;5.65;2.72;;;18.40;76.10;;;;;;5076737;28;20188;-90
2021/08/10 02:27:56;;;;;;;5.30;1.95;;;18.40;75.30;;;;;;5076545;28;20169;-88
2021/08/10 02:30:28;;;;;;;5.53;2.30;;;18.30;75.50;;;;;;5067945;28;20239;-90
2021/08/10 02:32:55;;;;;;;2.80;2.17;;;18.20;75.70;;;;;;5058846;28;20279;-90
2021/08/10 02:35:23;;;;;;;2.25;2.05;;;18.20;75.80;;;;;;5073821;28;20177;-90
2021/08/10 02:37:51;;;;;;;2.90;2.35;;;18.10;76.10;;;;;;5061724;28;20542;-90
2021/08/10 02:40:20;;;;;;;3.45;2.22;;;18.00;76.30;;;;;;5063403;28;20205;-90
2021/08/10 02:42:53;;;;;;;3.15;2.35;;;17.90;76.60;;;;;;5055929;28;20222;-90
2021/08/10 02:45:19;;;;;;;7.85;2.40;;;18.00;76.60;;;;;;5074485;28;20161;-90
2021/08/10 02:47:53;;;;;;;3.10;2.30;;;18.10;76.40;;;;;;5075952;28;20191;-90
2021/08/10 02:50:20;;;;;;;2.92;2.63;;;18.10;76.10;;;;;;5074401;28;20249;-90
2021/08/10 02:52:46;;;;;;;3.22;2.13;;;18.10;75.90;;;;;;5074392;28;20231;-89
2021/08/10 02:55:13;;;;;;;9.37;2.50;;;18.00;75.80;;;;;;5067346;28;20205;-90
2021/08/10 02:57:53;;;;;;;2.53;2.20;;;18.10;75.90;;;;;;5063500;28;20534;-90
2021/08/10 03:00:20;;;;;;;6.88;3.38;;;18.10;76.30;;;;;;5063659;28;20209;-90
2021/08/10 03:02:48;;;;;;;6.35;3.20;;;18.00;75.30;;;;;;5062435;28;20197;-90
2021/08/10 03:05:22;;;;;;;5.05;2.80;;;18.10;75.70;;;;;;5058125;28;20197;-90
2021/08/10 03:07:54;;;;;;;5.80;3.05;;;17.90;75.40;;;;;;5055135;28;20195;-90
2021/08/10 03:10:21;;;;;;;4.00;3.30;;;17.80;76.00;;;;;;5055622;28;20184;-90
2021/08/10 03:12:49;;;;;;;4.00;2.75;;;17.80;76.30;;;;;;5054521;28;20201;-90
2021/08/10 03:15:17;;;;;;;4.35;2.97;;;17.70;76.50;;;;;;5053400;28;20181;-90
2021/08/10 03:17:45;;;;;;;4.97;3.63;;;17.70;76.50;;;;;;5053628;28;20197;-90
2021/08/10 03:20:12;;;;;;;5.47;4.03;;;17.80;76.50;;;;;;5053544;28;20213;-90
2021/08/10 03:22:42;;;;;;;6.00;3.83;;;17.60;76.50;;;;;;5052782;28;20200;-90
2021/08/10 03:25:09;;;;;;;3.83;3.28;;;17.60;76.80;;;;;;5054681;28;20204;-90
2021/08/10 03:27:36;;;;;;;4.13;3.70;;;17.70;77.00;;;;;;5053095;28;20643;-90
2021/08/10 03:30:04;;;;;;;4.85;3.33;;;17.80;76.70;;;;;;5052962;28;20181;-90
2021/08/10 03:32:31;;;;;;;6.60;3.60;;;17.80;76.50;;;;;;5051912;28;20301;-90
2021/08/10 03:34:59;;;;;;;4.70;3.60;;;17.70;76.80;;;;;;5065713;28;20294;-90
2021/08/10 03:37:24;;;;;;;4.85;2.75;;;17.60;77.10;;;;;;5053030;28;20263;-90
2021/08/10 03:39:51;;;;;;;4.63;4.00;;;17.60;77.30;;;;;;5052517;28;20719;-90
2021/08/10 03:42:17;;;;;;;7.10;3.80;;;17.50;77.50;;;;;;5051990;28;20211;-90
2021/08/10 03:44:43;;;;;;;5.40;3.57;;;17.50;77.90;;;;;;5053040;28;20181;-90
2021/08/10 03:47:11;;;;;;;7.18;4.03;;;17.60;77.70;;;;;;5052611;28;20403;-91
2021/08/10 03:49:38;;;;;;;5.38;4.13;;;17.70;77.40;;;;;;5053103;28;20613;-90
2021/08/10 03:52:05;;;;;;;6.72;3.38;;;17.90;77.00;;;;;;5052031;28;20300;-90
2021/08/10 03:54:31;;;;;;;10.27;4.30;;;18.10;76.40;;;;;;5052955;28;20211;-90
2021/08/10 03:56:58;;;;;;;6.47;3.93;;;18.10;76.20;;;;;;5053254;28;20177;-90
2021/08/10 03:59:24;;;;;;;6.00;3.50;;;18.10;76.10;;;;;;5053076;28;20463;-90
2021/08/10 04:01:53;;;;;;;4.28;3.35;;;18.00;76.00;;;;;;5052932;28;20180;-90
2021/08/10 04:04:20;;;;;;;5.10;3.80;;;17.90;76.10;;;;;;5053261;28;20174;-90
2021/08/10 04:06:46;;;;;;;4.90;3.30;;;17.90;76.40;;;;;;5053408;28;20181;-90
2021/08/10 04:09:12;;;;;;;6.57;3.70;;;17.70;76.70;;;;;;5052706;28;20261;-90
2021/08/10 04:11:39;;;;;;;8.63;4.07;;;17.60;77.00;;;;;;5052302;28;20283;-90
2021/08/10 04:14:07;;;;;;;5.20;3.45;;;17.50;77.30;;;;;;5053859;28;20263;-90
2021/08/10 04:16:46;;;;;;;6.00;3.38;;;17.50;77.70;;;;;;5053061;28;20196;-90
2021/08/10 04:19:14;;;;;;;7.35;3.33;;;17.60;77.90;;;;;;5052487;28;20291;-90
2021/08/10 04:21:40;;;;;;;8.52;3.83;;;17.60;77.90;;;;;;5052670;28;20173;-90
2021/08/10 04:24:06;;;;;;;7.17;2.90;;;17.50;78.00;;;;;;5052810;28;20177;-90
2021/08/10 04:26:33;;;;;;;6.20;3.60;;;17.60;78.10;;;;;;5052782;28;20173;-90
2021/08/10 04:29:00;;;;;;;6.45;3.30;;;17.70;78.00;;;;;;5059712;28;20170;-89
2021/08/10 04:31:26;;;;;;;10.07;3.60;;;17.70;77.70;;;;;;5068778;28;20209;-90
2021/08/10 04:33:52;;;;;;;7.43;3.57;;;17.60;77.70;;;;;;5053313;28;20290;-90
2021/08/10 04:36:17;;;;;;;5.27;3.03;;;17.80;77.80;;;;;;5053190;28;20730;-90
2021/08/10 04:38:43;;;;;;;4.70;3.20;;;17.70;77.80;;;;;;5054528;28;20213;-90
2021/08/10 04:41:09;;;;;;;7.93;3.53;;;17.80;77.70;;;;;;5054720;28;20169;-90
2021/08/10 04:43:34;;;;;;;4.90;3.30;;;18.00;77.40;;;;;;5055205;28;20571;-90
2021/08/10 04:46:00;;;;;;;7.40;3.07;;;18.00;77.30;;;;;;5060213;28;20621;-90
2021/08/10 04:48:26;;;;;;;5.50;3.30;;;18.20;77.00;;;;;;5060136;28;20184;-90
2021/08/10 04:50:51;;;;;;;4.73;3.10;;;18.00;76.90;;;;;;5062011;28;20184;-90
2021/08/10 04:53:17;;;;;;;8.60;3.90;;;18.10;77.70;;;;;;5074661;28;20208;-89
2021/08/10 04:55:44;;;;;;;4.50;3.60;;;18.00;77.90;;;;;;5079692;28;20180;-89
2021/08/10 04:58:10;;;;;;;4.82;3.28;;;18.00;78.10;;;;;;5079107;28;20197;-90
2021/08/10 05:00:35;;;;;;;5.40;3.50;;;18.00;78.60;;;;;;5079622;28;20236;-90
2021/08/10 05:03:01;;;;;;;7.60;3.87;;;18.00;78.30;;;;;;5079213;28;20205;-89
2021/08/10 05:05:27;;;;;;;7.30;4.27;;;18.00;78.80;;;;;;5062715;28;20169;-90
2021/08/10 05:07:52;;;;;;;6.10;3.77;;;17.90;79.40;;;;;;5062941;28;20206;-89
2021/08/10 05:10:18;;;;;;;7.73;3.03;;;17.90;79.70;;;;;;5079441;28;20241;-89
2021/08/10 05:12:44;;;;;;;11.17;4.30;;;18.10;79.50;;;;;;5078176;28;20227;-90
2021/08/10 05:15:10;;;;;;;5.73;3.80;;;18.00;79.20;;;;;;5078312;28;20181;-90
2021/08/10 05:17:36;;;;;;;7.70;4.70;;;17.90;79.80;;;;;;5077078;28;20432;-90
2021/08/10 05:20:01;;;;;;;7.20;3.83;;;18.00;80.00;;;;;;5076615;28;20240;-90
2021/08/10 05:22:27;;;;;;;7.80;4.10;;;17.90;80.10;;;;;;5075340;28;20284;-90
2021/08/10 05:24:53;;;;;;;5.40;3.90;;;17.90;80.60;;;;;;5074561;28;20177;-89
2021/08/10 05:27:18;;;;;;;6.80;3.50;;;17.90;81.30;;;;;;5063346;28;20185;-91
2021/08/10 05:29:45;;;;;;;8.77;4.80;;;17.80;81.80;;;;;;5059068;28;20177;-91
2021/08/10 05:32:10;;;;;;;11.07;4.32;;;17.80;82.10;;;;;;5058312;28;20220;-91
2021/08/10 05:34:38;;;;;;;6.03;4.20;;;17.80;82.10;;;;;;5057195;28;20232;-91
2021/08/10 05:37:04;;;;;;;6.78;4.03;;;17.80;82.30;;;;;;5057034;28;20586;-91
2021/08/10 05:39:30;;;;;;;6.95;4.13;;;17.90;82.50;;;;;;5057470;28;20201;-91
2021/08/10 05:41:56;;;;;;;5.77;4.33;;;18.10;82.10;;;;;;5057560;28;20694;-91
2021/08/10 05:44:21;;;;;;;7.13;4.20;;;18.10;81.40;;;;;;5057345;28;20173;-91
2021/08/10 05:46:47;;;;;;;5.93;3.97;;;17.90;82.10;;;;;;5057043;28;20180;-91
2021/08/10 05:49:13;;;;;;;10.82;4.72;;;17.90;82.70;;;;;;5056974;28;20268;-91
2021/08/10 05:51:39;;;;;;;8.00;4.80;;;17.80;83.00;;;;;;5058263;28;20224;-91
2021/08/10 05:54:07;;;;;;;6.40;4.20;;;17.90;83.10;;;;;;5059312;28;20188;-91
2021/08/10 05:56:33;;;;;;;9.43;4.75;;;18.10;82.60;;;;;;5059862;28;20181;-91
2021/08/10 05:58:59;;;;;;;8.18;4.68;;;18.20;82.50;;;;;;5059293;28;20320;-90
2021/08/10 06:01:25;;;;;;;8.33;4.77;;;18.10;82.30;;;;;;5061851;28;20212;-91
2021/08/10 06:03:50;;;;;;;9.20;4.87;;;18.20;82.60;;;;;;5061091;28;20204;-90
2021/08/10 06:06:16;;;;;;;8.70;4.10;;;18.50;82.60;;;;;;5061415;28;20180;-91
2021/08/10 06:08:42;;;;;;;4.27;3.40;;;18.80;81.00;;;;;;5062504;28;20243;-90
2021/08/10 06:11:08;;;;;;;7.10;3.73;;;18.90;79.20;;;;;;5059111;28;20641;-90
2021/08/10 06:13:36;;;;;;;7.30;3.97;;;18.90;78.20;;;;;;5055601;28;20436;-90
2021/08/10 06:16:02;;;;;;;9.40;4.30;;;18.70;78.80;;;;;;5055843;28;20193;-91
2021/08/10 06:18:28;;;;;;;6.93;4.10;;;18.70;79.80;;;;;;5054223;28;20188;-91
2021/08/10 06:20:53;;;;;;;13.27;5.73;;;18.70;80.00;;;;;;5067271;28;20485;-91
2021/08/10 06:23:19;;;;;;;7.13;4.73;;;18.70;80.40;;;;;;5054465;28;20231;-91
2021/08/10 06:25:45;;;;;;;8.13;4.37;;;18.80;80.30;;;;;;5056156;28;20254;-90
2021/08/10 06:28:10;;;;;;;7.00;3.80;;;19.10;79.70;;;;;;5055471;28;20204;-91
2021/08/10 06:30:36;;;;;;;9.33;3.40;;;19.80;79.20;;;;;;5054976;28;20536;-91
2021/08/10 06:33:02;;;;;;;5.27;3.13;;;20.30;77.70;;;;;;5054604;28;20197;-90
2021/08/10 06:35:27;;;;;;;5.27;3.20;;;21.00;75.50;;;;;;5056535;28;20653;-90
2021/08/10 06:37:54;;;;;;;5.50;3.10;;;21.60;72.30;;;;;;5054900;28;20169;-91
2021/08/10 06:40:19;;;;;;;7.90;3.33;;;22.00;68.90;;;;;;5054062;28;20201;-91
2021/08/10 06:42:45;;;;;;;7.40;3.77;;;22.20;66.70;;;;;;5055076;28;20934;-90
2021/08/10 06:45:11;;;;;;;4.43;2.97;;;22.00;66.30;;;;;;5053889;28;20505;-90
2021/08/10 06:47:37;;;;;;;9.30;3.10;;;21.90;66.80;;;;;;5054081;28;20422;-90
2021/08/10 06:50:03;;;;;;;6.27;3.60;;;21.80;67.40;;;;;;5056410;28;20177;-91
2021/08/10 06:52:28;;;;;;;7.53;4.50;;;21.90;67.10;;;;;;5055706;28;20680;-91
2021/08/10 06:54:54;;;;;;;4.80;3.10;;;21.70;66.40;;;;;;5056383;28;20494;-90
2021/08/10 06:57:20;;;;;;;5.37;3.20;;;21.60;67.30;;;;;;5055756;28;20180;-90
2021/08/10 06:59:45;;;;;;;6.37;3.20;;;21.80;67.70;;;;;;5053668;28;20292;-91
2021/08/10 07:02:11;;;;;;;7.33;3.20;;;22.00;66.60;;;;;;5053083;28;20197;-91
2021/08/10 07:04:37;;;;;;;9.30;2.83;;;22.10;65.60;;;;;;5053580;28;20173;-91
2021/08/10 07:07:04;;;;;;;10.57;4.57;;;22.10;66.20;;;;;;5053247;28;20435;-91
2021/08/10 07:09:30;;;;;;;7.50;3.13;;;22.20;66.00;;;;;;5052967;28;20239;-90
2021/08/10 07:11:56;;;;;;;10.67;3.07;;;22.10;65.10;;;;;;5052701;28;20439;-91
2021/08/10 07:14:22;;;;;;;3.90;2.53;;;22.10;65.70;;;;;;5053767;28;20192;-90
2021/08/10 07:16:47;;;;;;;3.70;2.87;;;22.00;64.70;;;;;;5065578;28;20566;-91
2021/08/10 07:19:14;;;;;;;4.53;2.50;;;22.00;64.90;;;;;;5053375;28;20644;-91
2021/08/10 07:21:41;;;;;;;5.20;2.90;;;22.20;65.00;;;;;;5052968;28;20416;-91
2021/08/10 07:24:07;;;;;;;7.93;3.67;;;22.30;65.20;;;;;;5052838;28;20444;-90
2021/08/10 07:26:33;;;;;;;4.10;2.73;;;22.20;65.40;;;;;;5052806;28;20416;-91
2021/08/10 07:29:00;;;;;;;5.43;2.63;;;22.00;65.70;;;;;;5052563;28;20416;-91
2021/08/10 07:31:26;;;;;;;4.90;2.63;;;22.00;65.60;;;;;;5052907;28;20208;-91
2021/08/10 07:33:51;;;;;;;3.80;2.73;;;22.00;65.10;;;;;;5053450;28;20438;-90
2021/08/10 07:36:18;;;;;;;4.00;2.67;;;21.80;65.50;;;;;;5053411;28;20178;-90
2021/08/10 07:38:47;;;;;;;6.20;2.50;;;21.90;65.10;;;;;;5054203;28;20244;-91
2021/08/10 07:41:13;;;;;;;4.87;2.83;;;22.00;64.90;;;;;;5053233;28;20478;-91
2021/08/10 07:43:39;;;;;;;4.40;2.70;;;22.00;64.50;;;;;;5053095;28;20954;-91
2021/08/10 07:46:05;;;;;;;4.30;2.67;;;22.00;64.80;;;;;;5053257;28;20789;-91
2021/08/10 07:48:31;;;;;;;6.93;2.20;;;22.30;65.10;;;;;;5054730;28;20408;-91
2021/08/10 07:50:58;;;;;;;5.70;3.17;;;22.60;65.10;;;;;;5053287;28;20533;-91
2021/08/10 07:53:24;;;;;;;4.20;2.63;;;22.80;65.00;;;;;;5054016;28;20497;-91
2021/08/10 07:55:50;;;;;;;6.10;2.57;;;22.90;63.50;;;;;;5055568;28;20416;-91
2021/08/10 07:58:16;;;;;;;5.53;2.10;;;23.10;63.10;;;;;;5056044;28;20424;-91
2021/08/10 08:00:42;;;;;;;3.63;2.40;;;23.10;62.20;;;;;;5054066;28;20455;-91
2021/08/10 08:03:10;;;;;;;7.97;2.70;;;23.30;61.60;;;;;;5053058;28;20474;-91
2021/08/10 08:05:37;;;;;;;5.23;2.63;;;23.50;60.20;;;;;;5052953;28;20420;-90
2021/08/10 08:08:03;;;;;;;4.63;2.13;;;23.50;59.50;;;;;;5053263;28;20500;-91
2021/08/10 08:10:29;;;;;;;2.47;2.20;;;23.50;59.70;;;;;;5053221;28;20430;-91
2021/08/10 08:12:55;;;;;;;5.60;2.40;;;23.30;59.10;;;;;;5066016;28;20455;-91
2021/08/10 08:15:21;;;;;;;2.80;2.10;;;23.20;59.40;;;;;;5052855;28;20941;-91
2021/08/10 08:17:47;;;;;;;5.47;2.30;;;23.30;59.70;;;;;;5052518;28;20568;-91
2021/08/10 08:20:14;;;;;;;5.20;2.20;;;23.10;60.00;;;;;;5054653;28;20258;-91
2021/08/10 08:22:40;;;;;;;3.10;2.43;;;23.00;60.10;;;;;;5056194;28;20434;-91
2021/08/10 08:25:06;;;;;;;5.27;2.60;;;22.90;60.80;;;;;;5056530;28;20547;-91
2021/08/10 08:27:32;;;;;;;3.13;1.87;;;23.30;60.30;;;;;;5056421;28;20208;-91
2021/08/10 08:29:57;;;;;;;3.10;2.00;;;23.20;59.70;;;;;;5056205;28;20416;-91
2021/08/10 08:32:23;;;;;;;2.57;2.30;;;23.40;59.90;;;;;;5056909;28;20435;-91
2021/08/10 08:34:49;;;;;;;5.17;3.17;;;23.50;59.80;;;;;;5057514;28;20412;-91
2021/08/10 08:37:17;;;;;;;6.03;2.43;;;23.70;58.90;;;;;;5057631;28;20200;-91
2021/08/10 08:39:43;;;;;;;3.23;2.20;;;23.70;57.60;;;;;;5056424;28;20459;-91
2021/08/10 08:42:12;;;;;;;8.70;3.50;;;23.90;57.40;;;;;;5055779;28;20435;-91
2021/08/10 08:44:38;;;;;;;3.63;2.40;;;23.80;56.70;;;;;;5056008;28;20699;-91
2021/08/10 08:47:05;;;;;;;11.37;3.67;;;23.80;57.50;;;;;;5055898;28;20500;-90
2021/08/10 08:49:33;;;;;;;3.60;1.97;;;23.70;57.00;;;;;;5055889;28;20415;-91
2021/08/10 08:52:00;;;;;;;5.40;2.50;;;23.70;57.30;;;;;;5055631;28;20478;-91
2021/08/10 08:54:28;;;;;;;3.73;2.40;;;23.40;57.30;;;;;;5056175;28;20840;-91
2021/08/10 08:56:53;;;;;;;4.43;2.10;;;23.30;57.90;;;;;;5056224;28;20535;-91
2021/08/10 08:59:21;;;;;;;4.73;2.40;;;23.30;58.40;;;;;;5056362;28;21057;-91
2021/08/10 09:01:49;;;;;;;2.40;1.93;;;23.50;57.90;;;;;;5055603;28;20424;-91
2021/08/10 09:04:16;;;;;;;2.40;1.80;;;23.50;57.90;;;;;;5056158;28;20423;-91
2021/08/10 09:06:42;;;;;;;2.70;2.40;;;23.30;58.20;;;;;;5056975;28;20420;-91
2021/08/10 09:09:28;;;;;;;2.50;1.70;;;23.30;57.90;;;;;;5068146;28;20474;-91
2021/08/10 09:12:00;;;;;;;3.00;2.40;;;23.20;58.20;;;;;;5055873;28;20250;-91
2021/08/10 09:14:51;;;;;;;3.10;2.10;;;23.10;58.40;;;;;;5056083;28;20412;-90
2021/08/10 09:17:22;;;;;;;4.20;1.77;;;23.20;58.60;;;;;;5056091;28;20987;-91
2021/08/10 09:19:52;;;;;;;2.93;2.40;;;23.30;58.40;;;;;;5056277;28;20494;-91
2021/08/10 09:22:26;;;;;;;4.53;2.20;;;23.20;58.40;;;;;;5055681;28;20578;-91
2021/08/10 09:24:58;;;;;;;4.30;2.60;;;23.50;58.60;;;;;;5055776;28;20450;-91
2021/08/10 09:27:38;;;;;;;2.47;2.17;;;23.50;58.40;;;;;;5055431;28;20422;-91
2021/08/10 09:30:05;;;;;;;3.53;2.13;;;23.40;58.10;;;;;;5057302;28;20883;-91
2021/08/10 09:32:31;;;;;;;6.97;3.23;;;23.40;58.20;;;;;;5054167;28;20443;-91
2021/08/10 09:35:07;;;;;;;2.80;2.50;;;23.40;58.10;;;;;;5055929;28;20419;-91
2021/08/10 09:37:33;;;;;;;2.77;2.07;;;23.30;58.40;;;;;;5060600;28;21005;-90
2021/08/10 09:39:59;;;;;;;3.10;2.77;;;23.10;58.30;;;;;;5058884;28;20475;-91
2021/08/10 09:42:26;;;;;;;3.57;2.13;;;23.10;58.70;;;;;;5056531;28;20201;-91
2021/08/10 09:44:58;;;;;;;3.63;2.17;;;23.00;59.20;;;;;;5055374;28;20211;-90
2021/08/10 09:47:40;;;;;;;2.90;2.40;;;23.00;59.40;;;;;;5055145;28;20991;-91
2021/08/10 09:50:23;;;;;;;2.13;1.83;;;23.10;59.80;;;;;;5055586;28;20408;-91
2021/08/10 09:52:49;;;;;;;4.57;2.73;;;23.20;59.10;;;;;;5054737;28;20439;-91
2021/08/10 09:55:16;;;;;;;5.73;2.17;;;23.40;58.80;;;;;;5055933;28;20415;-91
2021/08/10 09:58:02;;;;;;;4.53;2.03;;;23.50;59.10;;;;;;5057867;28;20181;-91
2021/08/10 10:00:42;;;;;;;2.90;2.43;;;23.60;59.20;;;;;;5061318;28;20443;-90
2021/08/10 10:03:16;;;;;;;5.50;2.40;;;23.70;58.70;;;;;;5063210;28;20521;-91
2021/08/10 10:05:44;;;;;;;3.57;3.07;;;23.50;58.80;;;;;;5060519;28;20546;-91
2021/08/10 10:08:24;;;;;;;6.47;2.70;;;23.20;59.40;;;;;;5056178;28;20994;-91
2021/08/10 10:10:53;;;;;;;3.20;2.90;;;23.00;60.80;;;;;;5056809;28;20408;-90
2021/08/10 10:13:21;;;;;;;5.70;2.90;;;22.90;62.60;;;;;;5054840;28;20816;-91
2021/08/10 10:15:47;;;;;;;4.20;2.63;;;23.00;64.20;;;;;;5055453;28;20451;-91
2021/08/10 10:18:14;;;;;;;5.53;3.40;;;22.80;65.30;;;;;;5055511;28;20702;-91
2021/08/10 10:20:45;;;;;;;4.50;2.73;;;22.30;66.20;;;;;;5054708;28;20509;-91
2021/08/10 10:23:24;;;;;;;3.10;2.37;;;22.20;67.60;;;;;;5054297;28;20467;-91
2021/08/10 10:25:52;;;;;;;3.33;2.90;;;22.00;67.60;;;;;;5054919;28;20415;-91
2021/08/10 10:28:18;;;;;;;5.40;2.50;;;21.80;67.60;;;;;;5055426;28;20416;-91
2021/08/10 10:30:46;;;;;;;4.97;2.40;;;21.70;68.10;;;;;;5054396;28;20510;-91
2021/08/10 10:33:13;;;;;;;3.47;2.83;;;21.80;68.70;;;;;;5054805;28;20465;-90
2021/08/10 10:35:40;;;;;;;2.70;2.50;;;22.10;69.00;;;;;;5055033;28;20503;-90
2021/08/10 10:38:08;;;;;;;6.90;2.50;;;22.40;68.70;;;;;;5054872;28;20447;-90
2021/08/10 10:40:34;;;;;;;2.73;2.43;;;22.60;68.20;;;;;;5054217;28;20455;-91
2021/08/10 10:43:00;;;;;;;9.37;3.40;;;22.50;67.50;;;;;;5054217;28;20618;-91
2021/08/10 10:45:34;;;;;;;5.37;2.70;;;22.40;67.50;;;;;;5053978;28;20416;-91
2021/08/10 10:47:59;;;;;;;4.60;2.93;;;22.50;68.60;;;;;;5053928;28;20469;-91
2021/08/10 10:50:25;;;;;;;6.90;3.17;;;22.60;69.10;;;;;;5055991;28;20424;-91
2021/08/10 10:52:59;;;;;;;12.20;3.60;;;22.60;68.80;;;;;;5055795;28;20435;-91
2021/08/10 10:55:36;;;;;;;6.20;3.07;;;22.70;68.30;;;;;;5055976;28;20181;-91
2021/08/10 10:58:32;;;;;;;6.23;3.93;;;22.80;68.40;;;;;;5054981;28;20769;-91
2021/08/10 11:01:13;;;;;;;10.90;5.10;;;23.30;66.70;;;;;;5067806;28;20490;-91
2021/08/10 11:03:41;;;;;;;4.00;3.40;;;23.60;65.50;;;;;;5053913;28;20451;-91
2021/08/10 11:06:32;;;;;;;3.90;3.10;;;23.80;64.50;;;;;;5054891;28;20419;-91
2021/08/10 11:08:59;;;;;;;3.33;3.03;;;23.60;64.40;;;;;;5053925;28;20434;-91
2021/08/10 11:11:51;;;;;;;5.03;3.03;;;23.40;64.80;;;;;;5053897;28;20489;-91
2021/08/10 11:14:36;;;;;;;3.80;2.60;;;23.30;65.60;;;;;;5027338;28;20987;-91
2021/08/10 11:17:08;;;;;;;4.07;2.60;;;23.20;65.60;;;;;;5053673;28;20523;-91
2021/08/10 11:19:38;;;;;;;4.27;3.07;;;23.20;65.10;;;;;;5053373;28;20451;-91
2021/08/10 11:22:16;;;;;;;3.23;2.30;;;23.40;64.70;;;;;;5053443;28;20436;-91
2021/08/10 11:24:45;;;;;;;6.80;3.43;;;23.10;65.80;;;;;;5053826;28;20443;-91
2021/08/10 11:27:46;;;;;;;3.00;1.93;;;23.00;66.00;;;;;;5053687;28;20434;-91
2021/08/10 11:30:20;;;;;;;3.00;1.70;;;22.80;66.20;;;;;;5053375;28;20727;-91
2021/08/10 11:32:48;;;;;;;2.73;2.27;;;22.60;66.00;;;;;;5052899;28;20472;-91
2021/08/10 11:35:35;;;;;;;2.50;1.80;;;22.60;66.50;;;;;;5053329;28;20428;-91
2021/08/10 11:38:12;;;;;;;2.40;2.20;;;22.60;66.20;;;;;;5053179;28;20502;-91
2021/08/10 11:40:57;;;;;;;4.90;2.67;;;22.70;66.80;;;;;;5053306;28;20467;-91
2021/08/10 11:43:46;;;;;;;3.53;1.80;;;22.90;67.20;;;;;;5052254;28;20474;-91
2021/08/10 11:46:18;;;;;;;8.70;2.30;;;22.80;67.20;;;;;;5053194;28;20995;-91
2021/08/10 11:48:51;;;;;;;2.83;2.60;;;22.90;67.30;;;;;;5054029;28;20419;-91
2021/08/10 11:51:30;;;;;;;7.97;2.37;;;22.90;67.30;;;;;;5053512;28;20407;-91
2021/08/10 11:53:59;;;;;;;3.07;2.50;;;22.60;66.90;;;;;;5052015;28;20450;-91
2021/08/10 11:56:31;;;;;;;2.60;2.40;;;22.40;68.20;;;;;;5064044;28;20424;-91
2021/08/10 11:59:02;;;;;;;3.10;2.80;;;22.30;69.30;;;;;;5055093;28;20440;-91
2021/08/10 12:01:30;;;;;;;2.90;2.60;;;22.20;69.70;;;;;;5053241;28;20423;-91
2021/08/10 12:04:15;;;;;;;4.33;3.00;;;22.10;70.40;;;;;;5053400;28;20432;-91
2021/08/10 12:06:44;;;;;;;3.50;2.70;;;21.90;70.30;;;;;;5053513;28;20512;-91
2021/08/10 12:09:15;;;;;;;3.80;2.50;;;21.90;70.90;;;;;;5054296;28;20400;-91
2021/08/10 12:11:43;;;;;;;3.00;2.40;;;21.80;70.80;;;;;;5052807;28;20481;-91
2021/08/10 12:14:17;;;;;;;5.83;3.03;;;21.80;70.70;;;;;;5052998;28;20454;-91
2021/08/10 12:17:05;;;;;;;4.87;2.97;;;21.90;71.00;;;;;;5052828;28;20451;-91
2021/08/10 12:19:39;;;;;;;3.90;3.03;;;21.80;70.90;;;;;;5053141;28;20463;-91
2021/08/10 12:22:18;;;;;;;3.60;3.30;;;22.20;71.00;;;;;;5052520;28;20501;-91
2021/08/10 12:24:44;;;;;;;3.57;2.80;;;22.40;70.70;;;;;;5053679;28;20415;-91
2021/08/10 12:27:12;;;;;;;5.63;2.10;;;22.40;69.80;;;;;;5053714;28;20606;-91
2021/08/10 12:29:56;;;;;;;2.33;1.77;;;22.70;69.00;;;;;;5052435;28;20416;-91
2021/08/10 12:32:27;;;;;;;4.80;1.90;;;23.00;68.00;;;;;;5052491;28;20439;-91
2021/08/10 12:34:53;;;;;;;1.93;1.50;;;23.10;66.10;;;;;;5052930;28;20506;-91
2021/08/10 12:37:32;;;;;;;2.10;1.93;;;22.90;65.10;;;;;;5053306;28;20915;-91
2021/08/10 12:39:59;;;;;;;1.80;1.70;;;23.10;65.20;;;;;;5052641;28;20826;-91
2021/08/10 12:42:26;;;;;;;4.20;1.90;;;23.20;65.10;;;;;;5051824;28;20478;-92
2021/08/10 12:44:53;;;;;;;2.30;1.70;;;23.20;65.00;;;;;;5052707;28;20431;-91
2021/08/10 12:47:31;;;;;;;2.67;1.90;;;23.00;65.30;;;;;;5052601;28;20507;-91
2021/08/10 12:49:57;;;;;;;2.30;1.80;;;22.80;65.40;;;;;;5052825;28;20561;-91
2021/08/10 12:52:40;;;;;;;3.87;1.50;;;22.70;66.00;;;;;;5058250;28;20454;-91
2021/08/10 12:55:06;;;;;;;3.97;1.90;;;22.50;67.30;;;;;;5052732;28;20412;-91